Time;durP1;ratioP1;P1;durP2;ratioP2;P2;SDS_P1;SDS_P2;PMS_P1;PMS_P2;Temp;Humidity;BMP_temperature;BMP_pressure;BME280_temperature;BME280_humidity;BME280_pressure;Samples;Min_cycle;Max_cycle;Signal;HPM_P1;HPM_P2
2023/10/04 00:00:15;;;;;;;11.50;10.40;;;19.50;99.90;;;;;;5077693;28;20209;-72
2023/10/04 00:02:48;;;;;;;12.45;11.15;;;19.50;99.90;;;;;;5074919;28;20241;-73
2023/10/04 00:05:16;;;;;;;12.40;11.20;;;19.50;99.90;;;;;;5077658;28;20233;-70
2023/10/04 00:07:45;;;;;;;12.23;10.98;;;19.40;99.90;;;;;;5078995;28;20668;-71
2023/10/04 00:10:12;;;;;;;13.15;11.85;;;19.50;99.90;;;;;;5078613;28;20258;-73
2023/10/04 00:12:39;;;;;;;12.23;10.93;;;19.40;99.90;;;;;;5078833;28;20198;-75
2023/10/04 00:15:10;;;;;;;12.65;11.13;;;19.40;99.90;;;;;;5079799;28;20206;-72
2023/10/04 00:17:40;;;;;;;13.07;11.45;;;19.40;99.90;;;;;;5077477;28;20895;-73
2023/10/04 00:20:10;;;;;;;11.93;10.73;;;19.40;99.90;;;;;;5078027;28;20262;-73
2023/10/04 00:22:39;;;;;;;11.65;10.38;;;19.40;99.90;;;;;;5080608;28;20206;-72
2023/10/04 00:25:11;;;;;;;12.25;10.60;;;19.40;99.90;;;;;;5077494;28;20200;-72
2023/10/04 00:27:40;;;;;;;11.60;10.43;;;19.40;99.90;;;;;;5078508;28;20208;-72
2023/10/04 00:30:15;;;;;;;11.93;10.73;;;19.40;99.90;;;;;;5074621;28;20200;-71
2023/10/04 00:32:46;;;;;;;12.02;10.73;;;19.40;99.90;;;;;;5074688;28;20201;-71
2023/10/04 00:35:17;;;;;;;11.98;10.48;;;19.40;99.90;;;;;;5078472;28;20296;-72
2023/10/04 00:37:47;;;;;;;12.05;10.85;;;19.50;99.90;;;;;;5077905;28;20202;-72
2023/10/04 00:40:21;;;;;;;12.38;11.07;;;19.40;99.90;;;;;;5076667;28;20205;-71
2023/10/04 00:42:49;;;;;;;13.32;11.35;;;19.40;99.90;;;;;;5076228;28;20263;-71
2023/10/04 00:45:17;;;;;;;12.05;10.85;;;19.40;99.90;;;;;;5078480;28;20691;-71
2023/10/04 00:47:47;;;;;;;12.68;11.18;;;19.30;99.90;;;;;;5078274;28;20255;-72
2023/10/04 00:50:20;;;;;;;12.75;11.45;;;19.30;99.90;;;;;;5076191;28;20284;-71
2023/10/04 00:52:52;;;;;;;12.60;11.30;;;19.30;99.90;;;;;;5071799;28;20237;-71
2023/10/04 00:55:20;;;;;;;12.23;10.90;;;19.20;99.90;;;;;;5074813;28;21001;-73
2023/10/04 00:57:49;;;;;;;12.48;11.18;;;19.10;99.90;;;;;;5080952;28;20282;-75
2023/10/04 01:00:17;;;;;;;12.85;11.55;;;19.10;99.90;;;;;;5077304;28;20322;-71
2023/10/04 01:02:46;;;;;;;12.65;10.77;;;19.10;99.90;;;;;;5099655;28;20210;-74
2023/10/04 01:05:15;;;;;;;13.43;11.57;;;19.00;99.90;;;;;;5086796;28;20221;-71
2023/10/04 01:07:43;;;;;;;12.38;10.93;;;19.00;99.90;;;;;;5075929;28;20209;-71
2023/10/04 01:10:15;;;;;;;11.00;9.85;;;18.90;99.90;;;;;;5083719;28;20206;-74
2023/10/04 01:12:43;;;;;;;12.20;10.90;;;18.90;99.90;;;;;;5093259;28;20237;-75
2023/10/04 01:15:28;;;;;;;13.20;10.85;;;19.00;99.90;;;;;;5093842;28;20410;-74
2023/10/04 01:17:58;;;;;;;11.95;10.75;;;18.90;99.90;;;;;;5078307;28;20322;-72
2023/10/04 01:20:27;;;;;;;12.73;11.43;;;18.90;99.90;;;;;;5076986;28;20193;-72
2023/10/04 01:23:00;;;;;;;13.00;11.57;;;18.90;99.90;;;;;;5075770;28;20224;-73
2023/10/04 01:25:31;;;;;;;13.00;11.57;;;18.90;99.90;;;;;;5073985;28;20205;-71
2023/10/04 01:28:00;;;;;;;12.93;11.57;;;18.90;99.90;;;;;;5074832;28;20217;-72
2023/10/04 01:30:27;;;;;;;12.10;10.90;;;18.90;99.90;;;;;;5074308;28;20296;-73
2023/10/04 01:32:54;;;;;;;11.48;10.32;;;18.90;99.90;;;;;;5077146;28;20194;-72
2023/10/04 01:35:23;;;;;;;13.55;11.75;;;18.90;99.90;;;;;;5074427;28;20213;-73
2023/10/04 01:37:51;;;;;;;12.40;10.98;;;18.80;99.90;;;;;;5077119;28;20200;-72
2023/10/04 01:40:25;;;;;;;13.13;11.38;;;18.80;99.90;;;;;;5075928;28;20297;-72
2023/10/04 01:42:55;;;;;;;12.45;11.07;;;18.80;99.90;;;;;;5074855;28;20587;-72
2023/10/04 01:45:23;;;;;;;12.27;10.98;;;18.80;99.90;;;;;;5072308;28;20190;-73
2023/10/04 01:47:50;;;;;;;11.82;10.63;;;18.80;99.90;;;;;;5077281;28;20862;-73
2023/10/04 01:50:17;;;;;;;11.68;10.48;;;18.80;99.90;;;;;;5077715;28;20591;-73
2023/10/04 01:52:49;;;;;;;13.38;11.15;;;18.80;99.90;;;;;;5076605;28;20206;-72
2023/10/04 01:55:17;;;;;;;11.25;9.90;;;18.80;99.90;;;;;;5077050;28;20235;-73
2023/10/04 01:57:46;;;;;;;11.93;10.73;;;18.80;99.90;;;;;;5076447;28;20254;-72
2023/10/04 02:00:17;;;;;;;12.55;10.68;;;18.80;99.90;;;;;;5073071;28;20198;-73
2023/10/04 02:02:46;;;;;;;11.07;9.98;;;18.80;99.90;;;;;;5075636;28;20278;-73
2023/10/04 02:05:19;;;;;;;11.88;10.68;;;18.80;99.90;;;;;;5077861;28;20293;-75
2023/10/04 02:07:46;;;;;;;11.32;10.18;;;18.80;99.90;;;;;;5079737;28;20284;-73
2023/10/04 02:10:13;;;;;;;11.30;10.20;;;18.70;99.90;;;;;;5076987;28;20240;-73
2023/10/04 02:12:40;;;;;;;11.57;10.38;;;18.70;99.90;;;;;;5077401;28;20941;-73
2023/10/04 02:15:14;;;;;;;11.20;10.00;;;18.70;99.90;;;;;;5081130;28;20209;-73
2023/10/04 02:17:43;;;;;;;11.40;10.27;;;18.70;99.90;;;;;;5077428;28;20278;-73
2023/10/04 02:20:13;;;;;;;11.20;10.10;;;18.60;99.90;;;;;;5076661;28;20198;-73
2023/10/04 02:22:40;;;;;;;12.63;10.95;;;18.60;99.90;;;;;;5079929;28;20217;-75
2023/10/04 02:25:11;;;;;;;11.65;10.48;;;18.60;99.90;;;;;;5081219;28;20664;-72
2023/10/04 02:27:39;;;;;;;11.55;10.43;;;18.60;99.90;;;;;;5080421;28;20271;-73
2023/10/04 02:30:13;;;;;;;12.45;10.38;;;18.60;99.90;;;;;;5080098;28;20221;-73
2023/10/04 02:32:42;;;;;;;11.68;10.57;;;18.60;99.90;;;;;;5080602;28;20201;-73
2023/10/04 02:35:11;;;;;;;11.27;10.18;;;18.60;99.90;;;;;;5082437;28;20258;-73
2023/10/04 02:37:42;;;;;;;10.60;9.50;;;18.60;99.90;;;;;;5079917;28;20205;-74
2023/10/04 02:40:14;;;;;;;11.13;9.95;;;18.50;99.90;;;;;;5081229;28;20292;-73
2023/10/04 02:42:41;;;;;;;11.45;10.25;;;18.50;99.90;;;;;;5079859;28;20228;-72
2023/10/04 02:45:18;;;;;;;12.00;10.45;;;18.50;99.90;;;;;;5076164;28;20222;-74
2023/10/04 02:47:45;;;;;;;11.45;10.25;;;18.50;99.90;;;;;;5081322;28;20206;-73
2023/10/04 02:50:13;;;;;;;12.48;10.75;;;18.50;99.90;;;;;;5077169;28;20194;-75
2023/10/04 02:52:39;;;;;;;11.88;10.68;;;18.50;99.90;;;;;;5078928;28;20202;-72
2023/10/04 02:55:07;;;;;;;11.68;10.35;;;18.40;99.90;;;;;;5080609;28;20667;-74
2023/10/04 02:57:34;;;;;;;11.25;10.05;;;18.50;99.90;;;;;;5080185;28;20676;-74
2023/10/04 03:00:10;;;;;;;11.10;9.90;;;18.40;99.90;;;;;;5079389;28;20207;-75
2023/10/04 03:02:38;;;;;;;12.32;10.27;;;18.40;99.90;;;;;;5094339;28;20229;-75
2023/10/04 03:05:11;;;;;;;11.05;9.95;;;18.40;99.90;;;;;;5089442;28;20194;-73
2023/10/04 03:07:39;;;;;;;11.65;9.88;;;18.40;99.90;;;;;;5080962;28;20193;-73
2023/10/04 03:10:10;;;;;;;11.65;10.07;;;18.40;99.90;;;;;;5075372;28;20251;-73
2023/10/04 03:12:41;;;;;;;11.95;10.68;;;18.40;99.90;;;;;;5080439;28;20197;-74
2023/10/04 03:15:11;;;;;;;11.45;10.27;;;18.40;99.90;;;;;;5079772;28;20189;-74
2023/10/04 03:17:39;;;;;;;12.50;10.38;;;18.30;99.90;;;;;;5076444;28;20285;-73
2023/10/04 03:20:19;;;;;;;11.68;10.07;;;18.30;99.90;;;;;;5077891;28;20198;-73
2023/10/04 03:22:46;;;;;;;12.32;10.20;;;18.30;99.90;;;;;;5081420;28;20220;-73
2023/10/04 03:25:14;;;;;;;12.50;10.13;;;18.30;99.90;;;;;;5076740;28;20194;-74
2023/10/04 03:27:44;;;;;;;13.00;10.80;;;18.30;99.90;;;;;;5076183;28;20205;-74
2023/10/04 03:30:14;;;;;;;11.60;10.40;;;18.30;99.90;;;;;;5079073;28;20208;-74
2023/10/04 03:32:44;;;;;;;10.48;9.38;;;18.30;99.90;;;;;;5080215;28;20225;-73
2023/10/04 03:35:14;;;;;;;10.60;9.57;;;18.20;99.90;;;;;;5079633;28;20210;-73
2023/10/04 03:37:49;;;;;;;12.05;10.45;;;18.20;99.90;;;;;;5077245;28;20212;-73
2023/10/04 03:40:17;;;;;;;10.88;9.68;;;18.20;99.90;;;;;;5080559;28;20274;-73
2023/10/04 03:42:45;;;;;;;10.88;9.65;;;18.20;99.90;;;;;;5080734;28;20313;-73
2023/10/04 03:45:12;;;;;;;11.88;10.13;;;18.20;99.90;;;;;;5078474;28;20194;-74
2023/10/04 03:47:39;;;;;;;10.68;9.60;;;18.20;99.90;;;;;;5075635;28;20727;-72
2023/10/04 03:50:10;;;;;;;11.07;9.63;;;18.10;99.90;;;;;;5079960;28;20194;-73
2023/10/04 03:52:38;;;;;;;11.88;10.30;;;18.10;99.90;;;;;;5079264;28;20205;-73
2023/10/04 03:55:10;;;;;;;11.65;10.45;;;18.10;99.90;;;;;;5075100;28;20717;-73
2023/10/04 03:57:38;;;;;;;11.35;9.88;;;18.10;99.90;;;;;;5078376;28;20229;-73
2023/10/04 04:00:10;;;;;;;10.82;9.55;;;18.00;99.90;;;;;;5077863;28;20214;-72
2023/10/04 04:02:38;;;;;;;10.73;9.55;;;18.00;99.90;;;;;;5078179;28;20213;-74
2023/10/04 04:05:13;;;;;;;11.00;9.57;;;18.00;99.90;;;;;;5079906;28;20270;-73
2023/10/04 04:07:42;;;;;;;10.43;8.88;;;18.00;99.90;;;;;;5079432;28;21123;-73
2023/10/04 04:10:14;;;;;;;10.20;9.05;;;18.00;99.90;;;;;;5077223;28;20206;-73
2023/10/04 04:12:42;;;;;;;9.75;8.75;;;18.00;99.90;;;;;;5073845;28;20210;-73
2023/10/04 04:15:11;;;;;;;10.70;9.60;;;18.00;99.90;;;;;;5079194;28;20832;-73
2023/10/04 04:17:39;;;;;;;10.05;9.00;;;18.00;99.90;;;;;;5075511;28;20209;-74
2023/10/04 04:20:14;;;;;;;10.63;9.50;;;18.00;99.90;;;;;;5078333;28;20280;-74
2023/10/04 04:22:47;;;;;;;13.02;9.77;;;18.00;99.90;;;;;;5078490;28;20213;-73
2023/10/04 04:25:15;;;;;;;10.50;9.40;;;18.00;99.90;;;;;;5079139;28;20332;-74
2023/10/04 04:27:46;;;;;;;10.43;8.95;;;17.90;99.90;;;;;;5078229;28;20212;-73
2023/10/04 04:30:19;;;;;;;10.57;9.48;;;17.90;99.90;;;;;;5075096;28;20276;-73
2023/10/04 04:32:49;;;;;;;10.05;9.02;;;17.90;99.90;;;;;;5073557;28;20217;-75
2023/10/04 04:35:34;;;;;;;10.43;9.32;;;17.90;99.90;;;;;;5076361;28;20708;-73
2023/10/04 04:38:11;;;;;;;10.90;8.52;;;17.90;99.90;;;;;;5077233;28;20259;-73
2023/10/04 04:40:39;;;;;;;9.77;8.77;;;17.90;99.90;;;;;;5088187;28;20206;-74
2023/10/04 04:43:18;;;;;;;9.63;8.60;;;17.90;99.90;;;;;;5088268;28;20213;-75
2023/10/04 04:45:50;;;;;;;10.43;8.43;;;18.00;99.90;;;;;;5082529;28;20201;-73
2023/10/04 04:48:19;;;;;;;8.55;7.65;;;18.00;99.90;;;;;;5076074;28;20312;-73
2023/10/04 04:50:47;;;;;;;9.13;8.07;;;18.00;99.90;;;;;;5077532;28;20201;-73
2023/10/04 04:53:18;;;;;;;8.07;7.28;;;18.00;99.90;;;;;;5078885;28;20266;-73
2023/10/04 04:55:45;;;;;;;8.10;6.88;;;18.00;99.90;;;;;;5077934;28;20213;-75
2023/10/04 04:58:13;;;;;;;8.23;7.43;;;17.90;99.90;;;;;;5077725;28;20218;-74
2023/10/04 05:00:42;;;;;;;9.20;7.65;;;18.00;99.90;;;;;;5076200;28;20276;-74
2023/10/04 05:03:10;;;;;;;8.70;7.80;;;17.90;99.90;;;;;;5081466;28;20244;-74
2023/10/04 05:05:37;;;;;;;9.70;8.15;;;17.90;99.90;;;;;;5091661;28;20198;-76
2023/10/04 05:08:05;;;;;;;7.88;7.07;;;17.90;99.90;;;;;;5082313;28;20217;-73
2023/10/04 05:10:38;;;;;;;7.45;6.75;;;18.00;99.90;;;;;;5072689;28;20225;-74
2023/10/04 05:13:08;;;;;;;8.32;7.30;;;18.00;99.90;;;;;;5060807;28;20622;-73
2023/10/04 05:15:38;;;;;;;7.93;7.13;;;18.00;99.90;;;;;;5059786;28;21396;-74
2023/10/04 05:18:15;;;;;;;9.15;7.28;;;18.00;99.90;;;;;;5072700;28;20221;-73
2023/10/04 05:20:42;;;;;;;8.05;7.25;;;18.00;99.90;;;;;;5071874;28;20201;-74
2023/10/04 05:23:10;;;;;;;8.93;7.60;;;18.00;99.90;;;;;;5062425;28;20217;-74
2023/10/04 05:25:38;;;;;;;10.48;8.15;;;18.00;99.90;;;;;;5080589;28;20718;-73
2023/10/04 05:28:06;;;;;;;8.23;7.43;;;18.00;99.90;;;;;;5080763;28;20914;-75
2023/10/04 05:30:34;;;;;;;9.27;7.53;;;18.00;99.90;;;;;;5078147;28;20243;-72
2023/10/04 05:33:01;;;;;;;8.05;6.95;;;18.00;99.90;;;;;;5079278;28;20215;-73
2023/10/04 05:35:28;;;;;;;7.72;7.00;;;18.00;99.90;;;;;;5077023;28;20230;-72
2023/10/04 05:37:55;;;;;;;12.35;9.10;;;18.10;99.90;;;;;;5082086;28;20213;-77
2023/10/04 05:40:25;;;;;;;15.70;9.75;;;18.20;99.90;;;;;;5081252;28;20282;-75
2023/10/04 05:42:54;;;;;;;12.77;9.60;;;18.40;99.90;;;;;;5081679;28;20263;-75
2023/10/04 05:45:22;;;;;;;10.07;9.05;;;18.70;99.90;;;;;;5082833;28;20280;-76
2023/10/04 05:47:50;;;;;;;10.35;9.02;;;18.90;99.90;;;;;;5077412;28;20240;-75
2023/10/04 05:50:20;;;;;;;9.93;8.80;;;19.00;99.90;;;;;;5077198;28;20667;-74
2023/10/04 05:52:48;;;;;;;11.27;9.10;;;18.90;99.90;;;;;;5080506;28;20209;-74
2023/10/04 05:55:16;;;;;;;13.65;9.93;;;18.90;99.90;;;;;;5084912;28;20202;-74
2023/10/04 05:57:44;;;;;;;14.25;10.00;;;19.10;99.90;;;;;;5084538;28;20732;-73
2023/10/04 06:00:24;;;;;;;9.95;8.55;;;19.20;99.90;;;;;;5083679;28;20256;-74
2023/10/04 06:02:52;;;;;;;11.82;9.70;;;19.30;99.90;;;;;;5082977;28;20278;-77
2023/10/04 06:05:22;;;;;;;11.95;9.18;;;19.40;99.90;;;;;;5082687;28;20235;-75
2023/10/04 06:07:49;;;;;;;10.15;8.85;;;19.40;99.90;;;;;;5084033;28;20206;-74
2023/10/04 06:10:18;;;;;;;13.07;9.18;;;19.50;99.90;;;;;;5079887;28;20251;-74
2023/10/04 06:12:46;;;;;;;10.95;9.07;;;19.50;99.90;;;;;;5088156;28;20650;-75
2023/10/04 06:15:16;;;;;;;12.43;8.85;;;19.60;99.90;;;;;;5089697;28;20204;-75
2023/10/04 06:17:44;;;;;;;8.82;7.93;;;19.60;99.90;;;;;;5086443;28;20296;-73
2023/10/04 06:20:28;;;;;;;8.95;8.00;;;19.60;99.90;;;;;;5085672;28;20226;-74
2023/10/04 06:22:57;;;;;;;11.00;8.88;;;19.50;99.90;;;;;;5074868;28;20209;-72
2023/10/04 06:25:26;;;;;;;9.48;8.48;;;19.40;99.90;;;;;;5073165;28;20204;-72
2023/10/04 06:27:55;;;;;;;7.88;7.07;;;19.40;99.90;;;;;;5075899;28;20232;-72
2023/10/04 06:30:26;;;;;;;8.15;7.00;;;19.20;99.90;;;;;;5074933;28;20252;-73
2023/10/04 06:32:55;;;;;;;11.25;6.85;;;19.10;99.90;;;;;;5071941;28;20804;-72
2023/10/04 06:35:23;;;;;;;7.43;6.68;;;19.10;99.90;;;;;;5078750;28;20198;-71
2023/10/04 06:37:52;;;;;;;9.68;8.68;;;19.00;99.90;;;;;;5078285;28;20233;-73
2023/10/04 06:40:19;;;;;;;8.60;7.60;;;18.80;99.90;;;;;;5079904;28;20197;-71
2023/10/04 06:42:48;;;;;;;10.80;7.80;;;18.60;99.90;;;;;;5077396;28;20206;-71
2023/10/04 06:45:16;;;;;;;8.52;7.57;;;18.50;99.90;;;;;;5080022;28;20276;-73
2023/10/04 06:47:45;;;;;;;8.68;7.78;;;18.40;99.90;;;;;;5078677;28;20709;-70
2023/10/04 06:50:18;;;;;;;8.55;7.38;;;18.30;99.90;;;;;;5084790;28;20197;-71
2023/10/04 06:52:47;;;;;;;7.28;6.25;;;18.30;99.90;;;;;;5081611;28;20887;-71
2023/10/04 06:55:14;;;;;;;7.57;6.78;;;18.20;99.90;;;;;;5082046;28;20236;-72
2023/10/04 06:57:41;;;;;;;6.70;5.85;;;18.20;99.90;;;;;;5081775;28;20949;-72
2023/10/04 07:00:16;;;;;;;6.75;5.93;;;18.20;99.90;;;;;;5079046;28;20209;-70
2023/10/04 07:02:47;;;;;;;7.63;6.85;;;18.20;99.90;;;;;;5080453;28;20256;-71
2023/10/04 07:05:17;;;;;;;8.38;7.47;;;18.20;99.90;;;;;;5085691;28;20193;-74
2023/10/04 07:07:45;;;;;;;8.85;7.72;;;18.10;99.90;;;;;;5103422;28;20231;-71
2023/10/04 07:10:15;;;;;;;8.88;7.88;;;18.10;99.90;;;;;;5080238;28;20487;-71
2023/10/04 07:12:43;;;;;;;9.27;7.50;;;18.10;99.90;;;;;;5081723;28;20255;-71
2023/10/04 07:15:13;;;;;;;7.80;6.85;;;18.10;99.90;;;;;;5081981;28;20212;-72
2023/10/04 07:17:40;;;;;;;8.05;7.03;;;18.20;99.90;;;;;;5083457;28;20209;-71
2023/10/04 07:20:14;;;;;;;7.10;6.32;;;18.20;99.90;;;;;;5078023;28;20251;-72
2023/10/04 07:22:44;;;;;;;7.18;6.47;;;18.30;99.90;;;;;;5083796;28;20209;-72
2023/10/04 07:25:12;;;;;;;7.45;6.50;;;18.40;99.90;;;;;;5084680;28;20263;-72
2023/10/04 07:27:41;;;;;;;7.05;6.32;;;18.40;99.90;;;;;;5082194;28;20251;-71
2023/10/04 07:30:12;;;;;;;6.45;5.85;;;18.50;99.90;;;;;;5083341;28;20193;-70
2023/10/04 07:32:41;;;;;;;7.72;5.65;;;18.70;99.90;;;;;;5080801;28;20209;-71
2023/10/04 07:35:12;;;;;;;5.97;5.38;;;18.70;99.90;;;;;;5081504;28;20766;-72
2023/10/04 07:37:39;;;;;;;9.40;7.15;;;18.80;99.90;;;;;;5083064;28;20202;-72
2023/10/04 07:40:10;;;;;;;11.18;9.45;;;18.80;99.90;;;;;;5079047;28;20287;-71
2023/10/04 07:42:38;;;;;;;11.55;9.35;;;18.70;99.90;;;;;;5081579;28;20815;-72
2023/10/04 07:45:06;;;;;;;10.65;9.43;;;18.70;99.90;;;;;;5081584;28;20239;-72
2023/10/04 07:47:36;;;;;;;10.23;9.20;;;18.70;99.90;;;;;;5082437;28;20251;-71
2023/10/04 07:50:04;;;;;;;10.43;9.23;;;18.80;99.90;;;;;;5083149;28;20293;-72
2023/10/04 07:52:32;;;;;;;10.07;9.02;;;18.90;99.90;;;;;;5083209;28;20194;-70
2023/10/04 07:55:00;;;;;;;11.25;9.07;;;19.50;99.90;;;;;;5082397;28;20260;-72
2023/10/04 07:57:27;;;;;;;8.85;7.95;;;20.10;99.90;;;;;;5082409;28;20791;-71
2023/10/04 07:59:54;;;;;;;9.60;7.22;;;20.50;99.90;;;;;;5082444;28;20225;-72
2023/10/04 08:02:21;;;;;;;9.38;7.53;;;20.70;99.90;;;;;;5077754;28;20442;-71
2023/10/04 08:04:48;;;;;;;8.50;7.60;;;21.00;99.90;;;;;;5081138;28;20296;-72
2023/10/04 08:07:18;;;;;;;10.52;8.60;;;21.30;99.90;;;;;;5081624;28;20297;-73
2023/10/04 08:09:47;;;;;;;10.60;9.50;;;21.30;99.90;;;;;;5079599;28;20233;-70
2023/10/04 08:12:15;;;;;;;10.55;9.45;;;21.10;99.90;;;;;;5078768;28;20194;-72
2023/10/04 08:14:42;;;;;;;10.25;9.15;;;20.90;99.90;;;;;;5087503;28;20202;-75
2023/10/04 08:17:08;;;;;;;9.82;8.82;;;20.90;99.90;;;;;;5108124;28;20247;-74
2023/10/04 08:19:35;;;;;;;8.32;7.25;;;21.20;99.90;;;;;;5098497;28;20221;-73
2023/10/04 08:22:04;;;;;;;7.45;6.63;;;21.40;99.90;;;;;;5094966;28;20227;-72
2023/10/04 08:24:31;;;;;;;6.35;5.65;;;21.70;99.90;;;;;;5079384;28;20209;-71
2023/10/04 08:27:01;;;;;;;8.48;7.18;;;22.10;99.90;;;;;;5080981;28;20259;-71
2023/10/04 08:29:28;;;;;;;10.40;8.20;;;22.10;99.90;;;;;;5079032;28;20213;-72
2023/10/04 08:31:55;;;;;;;9.70;8.38;;;22.00;99.90;;;;;;5081474;28;20274;-72
2023/10/04 08:34:24;;;;;;;10.30;8.68;;;22.10;99.90;;;;;;5083157;28;20193;-73
2023/10/04 08:36:51;;;;;;;10.10;8.77;;;22.10;99.90;;;;;;5078795;28;20209;-73
2023/10/04 08:39:18;;;;;;;9.45;8.45;;;22.00;99.90;;;;;;5077244;28;20308;-70
2023/10/04 08:41:46;;;;;;;8.20;7.30;;;21.80;99.90;;;;;;5081685;28;20258;-71
2023/10/04 08:44:14;;;;;;;7.97;7.18;;;21.70;99.90;;;;;;5078781;28;20241;-72
2023/10/04 08:46:43;;;;;;;9.82;7.75;;;21.50;99.90;;;;;;5079123;28;20205;-72
2023/10/04 08:49:11;;;;;;;9.45;7.75;;;21.50;99.90;;;;;;5077991;28;20769;-72
2023/10/04 08:51:50;;;;;;;9.18;7.70;;;21.50;99.90;;;;;;5081606;28;20194;-72
2023/10/04 08:54:22;;;;;;;9.05;8.07;;;21.80;99.90;;;;;;5079406;28;20280;-71
2023/10/04 08:56:55;;;;;;;12.50;8.75;;;22.50;99.90;;;;;;5077559;28;20205;-72
2023/10/04 08:59:25;;;;;;;9.45;8.23;;;23.00;99.90;;;;;;5077197;28;20223;-71
2023/10/04 09:01:54;;;;;;;9.63;7.40;;;23.90;99.90;;;;;;5077013;28;20293;-73
2023/10/04 09:04:24;;;;;;;11.10;8.68;;;24.70;99.90;;;;;;5078636;28;20301;-70
2023/10/04 09:06:52;;;;;;;10.10;8.40;;;25.10;99.90;;;;;;5082198;28;20206;-71
2023/10/04 09:09:20;;;;;;;9.25;7.85;;;24.70;99.90;;;;;;5104194;28;20213;-72
2023/10/04 09:11:48;;;;;;;9.70;8.77;;;24.30;99.90;;;;;;5081964;28;20901;-74
2023/10/04 09:14:15;;;;;;;9.40;7.30;;;23.80;99.90;;;;;;5080156;28;20193;-71
2023/10/04 09:16:43;;;;;;;9.45;7.60;;;23.40;99.90;;;;;;5078784;28;20255;-73
2023/10/04 09:19:17;;;;;;;9.10;7.65;;;23.00;99.90;;;;;;5078424;28;20230;-72
2023/10/04 09:21:44;;;;;;;8.25;6.88;;;23.20;99.90;;;;;;5077090;28;20197;-74
2023/10/04 09:24:14;;;;;;;7.88;6.35;;;23.30;99.90;;;;;;5076618;28;20725;-72
2023/10/04 09:26:51;;;;;;;8.85;7.10;;;23.30;99.90;;;;;;5077384;28;20201;-72
2023/10/04 09:29:29;;;;;;;8.45;6.63;;;23.30;99.90;;;;;;5077778;28;20217;-72
2023/10/04 09:31:58;;;;;;;6.47;5.88;;;23.20;99.90;;;;;;5075214;28;20644;-71
2023/10/04 09:34:25;;;;;;;6.00;5.40;;;23.00;99.90;;;;;;5079119;28;20208;-72
2023/10/04 09:36:52;;;;;;;6.10;5.03;;;23.00;99.90;;;;;;5078476;28;20229;-73
2023/10/04 09:39:24;;;;;;;6.68;4.43;;;23.40;99.90;;;;;;5076917;28;20308;-73
2023/10/04 09:41:54;;;;;;;6.47;5.65;;;23.90;99.90;;;;;;5078597;28;20229;-73
2023/10/04 09:44:25;;;;;;;6.28;5.43;;;24.20;99.90;;;;;;5076584;28;20274;-71
2023/10/04 09:46:56;;;;;;;6.30;5.50;;;24.10;99.90;;;;;;5077215;28;20202;-71
2023/10/04 09:49:26;;;;;;;8.18;5.82;;;23.80;99.90;;;;;;5078714;28;20248;-72
2023/10/04 09:51:56;;;;;;;6.82;5.57;;;23.50;99.90;;;;;;5075693;28;20640;-72
2023/10/04 09:54:24;;;;;;;5.57;5.00;;;23.40;99.90;;;;;;5079912;28;20197;-73
2023/10/04 09:56:53;;;;;;;6.40;4.97;;;23.40;99.90;;;;;;5076019;28;20210;-72
2023/10/04 09:59:22;;;;;;;5.07;4.57;;;23.40;99.90;;;;;;5078053;28;20712;-71
2023/10/04 10:01:54;;;;;;;6.13;5.03;;;23.40;99.90;;;;;;5075669;28;20826;-70
2023/10/04 10:04:28;;;;;;;7.53;4.90;;;23.50;99.90;;;;;;5077396;28;20703;-72
2023/10/04 10:07:09;;;;;;;6.18;5.20;;;23.70;99.90;;;;;;5079130;28;20232;-72
2023/10/04 10:09:43;;;;;;;5.00;4.50;;;23.80;99.90;;;;;;5078267;28;20282;-72
2023/10/04 10:12:11;;;;;;;5.85;4.90;;;24.20;99.90;;;;;;5079130;28;20292;-73
2023/10/04 10:14:40;;;;;;;6.20;5.00;;;25.00;99.90;;;;;;5075108;28;20202;-72
2023/10/04 10:17:10;;;;;;;8.52;5.68;;;25.60;99.90;;;;;;5078432;28;20202;-71
2023/10/04 10:19:38;;;;;;;9.20;5.30;;;26.00;99.90;;;;;;5077931;28;20936;-71
2023/10/04 10:22:11;;;;;;;6.07;5.20;;;26.70;99.90;;;;;;5080340;28;20265;-70
2023/10/04 10:24:50;;;;;;;5.00;4.50;;;27.10;99.90;;;;;;5082330;28;20304;-72
2023/10/04 10:27:20;;;;;;;6.03;4.10;;;27.40;99.90;;;;;;5078960;28;20198;-73
2023/10/04 10:29:48;;;;;;;5.38;3.92;;;27.70;99.90;;;;;;5078965;28;20218;-72
2023/10/04 10:32:17;;;;;;;5.65;4.55;;;27.90;99.90;;;;;;5078549;28;20209;-72
2023/10/04 10:34:46;;;;;;;5.13;4.47;;;27.80;99.90;;;;;;5081682;28;20205;-71
2023/10/04 10:37:19;;;;;;;4.65;4.13;;;27.40;99.90;;;;;;5077387;28;20202;-72
2023/10/04 10:39:48;;;;;;;4.95;3.55;;;27.10;99.90;;;;;;5081443;28;20226;-73
2023/10/04 10:42:16;;;;;;;5.78;4.18;;;26.90;99.90;;;;;;5080729;28;20206;-71
2023/10/04 10:44:44;;;;;;;4.03;3.33;;;27.00;99.90;;;;;;5080717;28;20214;-72
2023/10/04 10:47:19;;;;;;;4.03;3.20;;;26.80;99.90;;;;;;5078118;28;20582;-72
2023/10/04 10:49:51;;;;;;;5.32;2.90;;;26.70;99.90;;;;;;5078735;28;20308;-72
2023/10/04 10:52:24;;;;;;;3.35;3.05;;;26.80;99.90;;;;;;5078479;28;20202;-71
2023/10/04 10:54:51;;;;;;;5.38;3.88;;;27.00;99.90;;;;;;5083001;28;20541;-72
2023/10/04 10:57:20;;;;;;;4.50;3.65;;;27.10;99.90;;;;;;5078747;28;20285;-72
2023/10/04 10:59:47;;;;;;;4.28;3.55;;;27.10;99.90;;;;;;5081731;28;20225;-72
2023/10/04 11:02:14;;;;;;;4.40;3.45;;;27.10;99.90;;;;;;5081315;28;20202;-72
2023/10/04 11:04:41;;;;;;;4.45;3.30;;;27.00;99.90;;;;;;5080954;28;20225;-71
2023/10/04 11:07:11;;;;;;;4.03;3.50;;;27.10;99.90;;;;;;5083690;28;20198;-71
2023/10/04 11:09:39;;;;;;;3.35;3.05;;;27.10;99.90;;;;;;5092712;28;20269;-74
2023/10/04 11:12:08;;;;;;;3.75;3.20;;;27.20;99.90;;;;;;5099016;28;20209;-72
2023/10/04 11:14:37;;;;;;;3.60;3.25;;;27.40;99.90;;;;;;5078424;28;20719;-72
2023/10/04 11:17:10;;;;;;;6.32;2.90;;;27.50;99.90;;;;;;5084268;28;20194;-72
2023/10/04 11:19:37;;;;;;;3.47;3.00;;;27.40;99.90;;;;;;5082480;28;20233;-72
2023/10/04 11:22:04;;;;;;;3.88;3.20;;;27.40;99.90;;;;;;5083247;28;20263;-74
2023/10/04 11:24:32;;;;;;;4.00;3.17;;;27.40;99.90;;;;;;5081875;28;20217;-72
2023/10/04 11:27:01;;;;;;;4.20;2.97;;;27.30;99.90;;;;;;5081233;28;20218;-73
2023/10/04 11:29:30;;;;;;;4.90;3.50;;;27.30;99.90;;;;;;5077143;28;20225;-72
2023/10/04 11:31:58;;;;;;;4.05;3.20;;;27.30;99.90;;;;;;5080338;28;20341;-71
2023/10/04 11:34:25;;;;;;;4.22;3.38;;;27.40;99.90;;;;;;5081429;28;20193;-72
2023/10/04 11:36:58;;;;;;;3.58;3.08;;;27.40;99.90;;;;;;5079156;28;20213;-71
2023/10/04 11:39:33;;;;;;;3.55;3.10;;;27.60;99.90;;;;;;5080186;28;20234;-72
2023/10/04 11:42:02;;;;;;;3.95;3.25;;;27.50;99.90;;;;;;5078979;28;20213;-73
2023/10/04 11:44:32;;;;;;;3.58;3.28;;;27.50;99.90;;;;;;5079036;28;20300;-73
2023/10/04 11:47:03;;;;;;;3.10;2.75;;;27.50;99.90;;;;;;5080656;28;20217;-73
2023/10/04 11:49:33;;;;;;;3.22;2.72;;;27.40;99.90;;;;;;5080636;28;20217;-74
2023/10/04 11:52:02;;;;;;;3.33;3.03;;;27.40;99.90;;;;;;5074178;28;20289;-73
2023/10/04 11:54:39;;;;;;;3.33;3.03;;;27.10;99.90;;;;;;5081717;28;20197;-71
2023/10/04 11:57:08;;;;;;;3.78;3.20;;;27.00;99.90;;;;;;5071626;28;20251;-73
2023/10/04 11:59:35;;;;;;;3.13;2.80;;;27.40;99.90;;;;;;5080699;28;20228;-72
2023/10/04 12:02:02;;;;;;;3.50;2.95;;;27.40;99.90;;;;;;5072100;28;20256;-70
2023/10/04 12:04:30;;;;;;;3.60;3.28;;;27.40;99.90;;;;;;5079263;28;20202;-72
2023/10/04 12:07:02;;;;;;;5.18;3.55;;;27.20;99.90;;;;;;5082701;28;20197;-72
2023/10/04 12:09:31;;;;;;;5.35;3.55;;;27.10;99.90;;;;;;5082844;28;20651;-72
2023/10/04 12:11:59;;;;;;;4.55;3.17;;;27.00;99.90;;;;;;5077618;28;20296;-72
2023/10/04 12:14:31;;;;;;;3.40;3.05;;;27.00;99.90;;;;;;5080435;28;20237;-74
2023/10/04 12:16:58;;;;;;;3.63;3.17;;;26.90;99.90;;;;;;5078749;28;20205;-72
2023/10/04 12:19:25;;;;;;;3.90;3.08;;;26.70;99.90;;;;;;5080638;28;21326;-72
2023/10/04 12:21:52;;;;;;;4.07;3.08;;;26.70;99.90;;;;;;5078235;28;20198;-71
2023/10/04 12:24:19;;;;;;;3.28;2.97;;;26.70;99.90;;;;;;5079029;28;20255;-72
2023/10/04 12:26:46;;;;;;;3.00;2.70;;;26.70;99.90;;;;;;5075868;28;20194;-72
2023/10/04 12:29:13;;;;;;;3.63;3.30;;;26.60;99.90;;;;;;5077948;28;20222;-73
2023/10/04 12:31:43;;;;;;;3.60;2.97;;;26.60;99.90;;;;;;5079584;28;20225;-73
2023/10/04 12:34:10;;;;;;;3.92;3.33;;;26.70;99.90;;;;;;5078243;28;20201;-73
2023/10/04 12:36:39;;;;;;;3.28;2.88;;;26.80;99.90;;;;;;5075332;28;20322;-72
2023/10/04 12:39:07;;;;;;;3.45;3.15;;;26.70;99.90;;;;;;5078545;28;20350;-72
2023/10/04 12:41:34;;;;;;;3.08;2.78;;;26.70;99.90;;;;;;5080262;28;20202;-72
2023/10/04 12:44:02;;;;;;;4.18;3.05;;;26.70;99.90;;;;;;5081399;28;20255;-72
2023/10/04 12:46:29;;;;;;;5.75;3.50;;;26.70;99.90;;;;;;5077948;28;20228;-72
2023/10/04 12:48:58;;;;;;;3.28;2.97;;;26.50;99.90;;;;;;5079125;28;20263;-71
2023/10/04 12:51:29;;;;;;;4.07;3.15;;;26.40;99.90;;;;;;5081137;28;20226;-71